createdAt,value
2018-03-04T00:01:50.028Z,87.10
2018-03-04T00:04:17.549Z,87.10
2018-03-04T00:06:45.078Z,87.00
2018-03-04T00:09:12.589Z,86.90
2018-03-04T00:11:40.558Z,87.10
2018-03-04T00:14:08.476Z,87.50
2018-03-04T00:16:36.009Z,87.50
2018-03-04T00:19:03.907Z,88.00
2018-03-04T00:21:31.433Z,88.00
2018-03-04T00:23:58.970Z,88.10
2018-03-04T00:26:26.500Z,88.20
2018-03-04T00:28:54.008Z,88.50
2018-03-04T00:31:21.943Z,88.70
2018-03-04T00:33:49.459Z,88.70
2018-03-04T00:36:16.990Z,88.80
2018-03-04T00:38:44.891Z,89.20
2018-03-04T00:41:12.424Z,89.20
2018-03-04T00:43:40.421Z,89.50
2018-03-04T00:46:07.947Z,89.50
2018-03-04T00:48:35.944Z,89.60
2018-03-04T00:51:03.547Z,89.60
2018-03-04T00:53:31.160Z,89.60
2018-03-04T00:55:58.696Z,89.60
2018-03-04T00:58:26.595Z,89.80
2018-03-04T01:00:54.122Z,89.80
2018-03-04T01:03:21.638Z,89.90
2018-03-04T01:05:49.607Z,89.80
2018-03-04T01:08:17.121Z,89.80
2018-03-04T01:10:44.660Z,89.60
2018-03-04T01:13:12.575Z,89.60
2018-03-04T01:15:40.103Z,89.60
2018-03-04T01:18:07.662Z,89.40
2018-03-04T01:20:35.252Z,89.20
2018-03-04T01:23:02.762Z,89.20
2018-03-04T01:25:30.338Z,89.00
2018-03-04T01:27:57.865Z,89.00
2018-03-04T01:30:25.789Z,88.70
2018-03-04T01:32:53.327Z,88.70
2018-03-04T01:35:20.836Z,88.60
2018-03-04T01:37:48.364Z,88.50
2018-03-04T01:40:15.873Z,88.30
2018-03-04T01:42:43.799Z,88.20
2018-03-04T01:45:11.313Z,88.20
2018-03-04T01:47:38.848Z,88.40
2018-03-04T01:50:06.354Z,88.40
2018-03-04T01:52:33.995Z,88.30
2018-03-04T01:55:01.518Z,88.30
2018-03-04T01:57:29.456Z,88.00
2018-03-04T01:59:56.961Z,88.10
2018-03-04T02:02:24.896Z,87.80
2018-03-04T02:04:52.408Z,87.80
2018-03-04T02:07:19.943Z,87.80
2018-03-04T02:09:47.850Z,87.60
2018-03-04T02:12:15.398Z,87.60
2018-03-04T02:14:42.929Z,87.60
2018-03-04T02:17:10.491Z,87.60
2018-03-04T02:19:38.007Z,87.50
2018-03-04T02:22:05.547Z,87.50
2018-03-04T02:24:33.060Z,87.30
2018-03-04T02:27:00.600Z,87.30
2018-03-04T02:29:28.516Z,87.10
2018-03-04T02:31:56.065Z,87.10
2018-03-04T02:34:23.587Z,87.00
2018-03-04T02:36:51.550Z,86.90
2018-03-04T02:39:19.469Z,86.80
2018-03-04T02:41:47.012Z,86.80
2018-03-04T02:44:14.530Z,86.80
2018-03-04T02:46:42.051Z,86.70
2018-03-04T02:49:09.560Z,86.60
2018-03-04T02:51:37.494Z,86.50
2018-03-04T02:54:05.015Z,86.50
2018-03-04T02:56:32.677Z,86.60
2018-03-04T02:59:00.338Z,86.50
2018-03-04T03:01:27.840Z,86.20
2018-03-04T03:03:55.453Z,86.60
2018-03-04T03:06:22.959Z,86.80
2018-03-04T03:08:50.508Z,87.20
2018-03-04T03:11:18.021Z,87.40
2018-03-04T03:13:45.560Z,87.30
2018-03-04T03:16:13.090Z,87.40
2018-03-04T03:18:40.614Z,88.00
2018-03-04T03:21:08.135Z,88.30
2018-03-04T03:23:36.074Z,88.80
2018-03-04T03:26:03.605Z,88.80
2018-03-04T03:28:31.150Z,89.00
2018-03-04T03:30:58.749Z,89.20
2018-03-04T03:33:26.271Z,89.00
2018-03-04T03:35:53.875Z,89.00
2018-03-04T03:38:21.405Z,89.00
2018-03-04T03:40:48.911Z,88.90
2018-03-04T03:43:16.844Z,88.90
2018-03-04T03:45:44.356Z,88.90
2018-03-04T03:48:11.860Z,88.90
2018-03-04T03:50:39.487Z,89.00
2018-03-04T03:53:06.999Z,89.20
2018-03-04T03:55:34.994Z,89.50
2018-03-04T03:58:02.562Z,89.50
2018-03-04T04:00:30.091Z,89.60
2018-03-04T04:02:58.003Z,89.60
2018-03-04T04:05:25.535Z,89.60
2018-03-04T04:07:53.073Z,89.80
2018-03-04T04:10:21.005Z,89.60
2018-03-04T04:12:48.512Z,89.60
2018-03-04T04:15:16.052Z,89.50
2018-03-04T04:17:43.963Z,89.40
2018-03-04T04:20:11.496Z,89.40
2018-03-04T04:22:39.003Z,89.20
2018-03-04T04:25:06.527Z,88.90
2018-03-04T04:27:34.031Z,88.90
2018-03-04T04:30:01.575Z,88.80
2018-03-04T04:32:29.112Z,88.80
2018-03-04T04:34:57.016Z,89.20
2018-03-04T04:37:24.539Z,89.20
2018-03-04T04:39:52.055Z,89.40
2018-03-04T04:42:19.977Z,89.60
2018-03-04T04:44:47.481Z,89.60
2018-03-04T04:47:15.450Z,89.90
2018-03-04T04:49:43.376Z,90.10
2018-03-04T04:52:10.919Z,90.10
2018-03-04T04:54:38.484Z,90.10
2018-03-04T04:57:06.017Z,90.10
2018-03-04T04:59:33.535Z,90.10
2018-03-04T05:02:01.545Z,90.10
2018-03-04T05:04:29.191Z,90.10
2018-03-04T05:06:57.588Z,90.00
2018-03-04T05:09:25.096Z,90.00
2018-03-04T05:11:52.606Z,89.90
2018-03-04T05:14:20.146Z,89.90
2018-03-04T05:16:47.664Z,90.00
2018-03-04T05:19:15.200Z,89.90
2018-03-04T05:21:42.699Z,89.70
2018-03-04T05:24:10.647Z,89.80
2018-03-04T05:26:38.568Z,90.00
2018-03-04T05:29:06.091Z,90.00
2018-03-04T05:31:34.006Z,90.00
2018-03-04T05:34:01.665Z,90.00
2018-03-04T05:36:29.185Z,90.00
2018-03-04T05:38:57.115Z,89.90
2018-03-04T05:41:24.637Z,89.90
2018-03-04T05:43:52.166Z,90.00
2018-03-04T05:46:20.075Z,90.00
2018-03-04T05:48:47.618Z,90.00
2018-03-04T05:51:15.156Z,89.80
2018-03-04T05:53:42.693Z,90.00
2018-03-04T05:56:10.612Z,89.90
2018-03-04T05:58:38.152Z,90.00
2018-03-04T06:01:05.700Z,90.00
2018-03-04T06:03:33.639Z,89.90
2018-03-04T06:06:01.254Z,89.90
2018-03-04T06:08:28.763Z,89.90
2018-03-04T06:10:56.697Z,89.70
2018-03-04T06:13:24.216Z,89.70
2018-03-04T06:15:51.775Z,89.80
2018-03-04T06:18:19.287Z,89.90
2018-03-04T06:20:46.816Z,89.90
2018-03-04T06:23:14.354Z,90.00
2018-03-04T06:25:41.885Z,89.60
2018-03-04T06:28:09.786Z,89.70
2018-03-04T06:30:37.362Z,89.70
2018-03-04T06:33:04.871Z,89.80
2018-03-04T06:35:32.798Z,89.60
2018-03-04T06:38:00.303Z,89.60
2018-03-04T06:40:28.239Z,89.90
2018-03-04T06:42:55.750Z,89.90
2018-03-04T06:45:23.351Z,90.00
2018-03-04T06:47:50.869Z,89.20
2018-03-04T06:50:18.407Z,88.30
2018-03-04T06:52:45.916Z,87.40
2018-03-04T06:55:13.459Z,87.10
2018-03-04T06:57:40.984Z,86.50
2018-03-04T07:00:08.522Z,86.50
2018-03-04T07:02:36.440Z,85.30
2018-03-04T07:05:03.979Z,85.30
2018-03-04T07:07:31.523Z,84.70
2018-03-04T07:09:59.040Z,85.30
2018-03-04T07:12:26.571Z,83.90
2018-03-04T07:14:54.075Z,84.40
2018-03-04T07:17:22.082Z,83.30
2018-03-04T07:19:49.599Z,83.30
2018-03-04T07:22:17.527Z,81.60
2018-03-04T07:24:45.062Z,81.60
2018-03-04T07:27:12.605Z,80.30
2018-03-04T07:29:40.246Z,81.00
2018-03-04T07:32:07.779Z,80.60
2018-03-04T07:34:35.287Z,80.80
2018-03-04T07:37:02.859Z,78.90
2018-03-04T07:39:30.423Z,78.70
2018-03-04T07:41:58.007Z,78.80
2018-03-04T07:44:25.545Z,79.80
2018-03-04T07:46:53.082Z,79.60
2018-03-04T07:49:20.614Z,79.20
2018-03-04T07:51:48.525Z,78.40
2018-03-04T07:54:16.063Z,78.40
2018-03-04T07:56:43.567Z,77.80
2018-03-04T07:59:11.104Z,78.20
2018-03-04T08:01:38.652Z,77.80
2018-03-04T08:04:06.191Z,77.10
2018-03-04T08:06:33.708Z,76.80
2018-03-04T08:09:01.242Z,77.00
2018-03-04T08:11:28.811Z,76.70
2018-03-04T08:13:56.323Z,76.90
2018-03-04T08:16:23.847Z,76.10
2018-03-04T08:18:51.410Z,76.70
2018-03-04T08:21:18.912Z,76.30
2018-03-04T08:23:46.421Z,76.60
2018-03-04T08:26:26.250Z,77.30
2018-03-04T08:28:53.768Z,77.30
2018-03-04T08:31:21.296Z,77.50
2018-03-04T08:33:49.192Z,76.20
2018-03-04T08:36:16.741Z,76.20
2018-03-04T08:38:44.316Z,75.50
2018-03-04T08:41:11.861Z,74.60
2018-03-04T08:43:39.371Z,75.30
2018-03-04T08:46:06.999Z,74.50
2018-03-04T08:48:34.517Z,74.00
2018-03-04T08:51:02.444Z,74.00
2018-03-04T08:53:29.971Z,73.70
2018-03-04T08:55:57.504Z,73.70
2018-03-04T08:58:25.412Z,73.40
2018-03-04T09:00:53.039Z,73.40
2018-03-04T09:03:20.970Z,71.60
2018-03-04T09:05:48.479Z,71.60
2018-03-04T09:08:16.012Z,71.40
2018-03-04T09:10:43.620Z,70.90
2018-03-04T09:13:11.167Z,70.80
2018-03-04T09:15:39.268Z,70.60
2018-03-04T09:18:06.811Z,70.30
2018-03-04T09:20:34.331Z,70.40
2018-03-04T09:23:02.267Z,70.10
2018-03-04T09:25:29.789Z,70.10
2018-03-04T09:27:57.367Z,69.90
2018-03-04T09:30:24.875Z,69.60
2018-03-04T09:32:52.413Z,68.50
2018-03-04T09:35:20.343Z,69.20
2018-03-04T09:37:47.884Z,69.20
2018-03-04T09:40:15.400Z,69.40
2018-03-04T09:42:43.355Z,69.40
2018-03-04T09:45:10.882Z,69.40
2018-03-04T09:47:38.418Z,69.90
2018-03-04T09:50:05.935Z,69.50
2018-03-04T09:52:33.475Z,69.00
2018-03-04T09:55:00.996Z,68.80
2018-03-04T09:57:28.519Z,69.50
2018-03-04T09:59:56.456Z,68.60
2018-03-04T10:02:24.003Z,68.60
2018-03-04T10:04:51.538Z,68.00
2018-03-04T10:07:19.196Z,68.10
2018-03-04T10:09:46.731Z,67.80
2018-03-04T10:12:14.659Z,67.70
2018-03-04T10:14:42.207Z,67.70
2018-03-04T10:17:09.732Z,67.80
2018-03-04T10:19:37.271Z,67.30
2018-03-04T10:22:05.180Z,67.20
2018-03-04T10:24:32.708Z,67.20
2018-03-04T10:27:00.260Z,66.60
2018-03-04T10:29:28.192Z,64.20
2018-03-04T10:31:55.711Z,64.20
2018-03-04T10:34:23.251Z,65.20
2018-03-04T10:36:50.780Z,64.60
2018-03-04T10:39:18.291Z,64.00
2018-03-04T10:41:45.824Z,64.20
2018-03-04T10:44:13.355Z,64.10
2018-03-04T10:46:40.896Z,64.00
2018-03-04T10:49:08.403Z,63.50
2018-03-04T10:51:35.947Z,63.30
2018-03-04T10:54:03.850Z,64.50
2018-03-04T10:56:31.383Z,65.10
2018-03-04T10:58:59.060Z,65.10
2018-03-04T11:01:28.428Z,64.80
2018-03-04T11:03:56.515Z,64.80
2018-03-04T11:09:45.855Z,65.20
2018-03-04T11:12:13.409Z,66.10
2018-03-04T11:14:40.922Z,66.20
2018-03-04T11:17:08.511Z,67.60
2018-03-04T11:19:36.086Z,68.60
2018-03-04T11:22:03.619Z,68.60
2018-03-04T11:24:31.135Z,69.70
2018-03-04T11:26:59.071Z,71.90
2018-03-04T11:29:26.583Z,71.90
2018-03-04T11:31:54.112Z,72.10
2018-03-04T11:34:22.020Z,73.00
2018-03-04T11:36:49.579Z,73.00
2018-03-04T11:39:17.093Z,72.90
2018-03-04T11:41:44.627Z,72.80
2018-03-04T11:44:12.167Z,74.10
2018-03-04T11:46:39.684Z,74.30
2018-03-04T11:49:07.721Z,74.40
2018-03-04T11:51:35.339Z,74.40
2018-03-04T11:54:02.884Z,74.40
2018-03-04T11:56:30.396Z,74.50
2018-03-04T11:58:58.019Z,74.90
2018-03-04T12:01:25.625Z,74.90
2018-03-04T12:03:53.159Z,75.30
2018-03-04T12:06:20.769Z,75.20
2018-03-04T12:08:48.303Z,75.90
2018-03-04T12:11:15.831Z,75.90
2018-03-04T12:13:43.392Z,75.80
2018-03-04T12:16:10.891Z,75.90
2018-03-04T12:18:38.823Z,76.00
2018-03-04T12:21:06.319Z,76.00
2018-03-04T12:23:34.248Z,76.00
2018-03-04T12:26:01.775Z,76.30
2018-03-04T12:28:29.297Z,76.00
2018-03-04T12:30:57.195Z,74.80
2018-03-04T12:33:24.727Z,75.30
2018-03-04T12:35:52.627Z,75.30
2018-03-04T12:38:20.174Z,74.60
2018-03-04T12:40:47.684Z,74.40
2018-03-04T12:43:15.190Z,74.40
2018-03-04T12:45:42.722Z,74.90
2018-03-04T12:48:10.644Z,74.50
2018-03-04T12:50:38.171Z,74.30
2018-03-04T12:53:05.679Z,73.80
2018-03-04T12:55:33.265Z,74.20
2018-03-04T12:58:00.767Z,74.10
2018-03-04T13:00:28.324Z,74.10
2018-03-04T13:02:55.836Z,74.20
2018-03-04T13:05:23.758Z,74.40
2018-03-04T13:07:51.452Z,74.50
2018-03-04T13:10:18.986Z,74.50
2018-03-04T13:12:46.500Z,74.80
2018-03-04T13:15:14.032Z,74.10
2018-03-04T13:17:41.955Z,74.50
2018-03-04T13:20:09.483Z,74.00
2018-03-04T13:22:36.977Z,74.00
2018-03-04T13:25:04.497Z,74.20
2018-03-04T13:27:32.017Z,74.20
2018-03-04T13:29:59.553Z,74.20
2018-03-04T13:32:27.099Z,73.70
2018-03-04T13:34:54.616Z,73.80
2018-03-04T13:37:22.563Z,73.50
2018-03-04T13:39:50.072Z,73.70
2018-03-04T13:42:17.597Z,73.50
2018-03-04T13:44:45.491Z,73.90
2018-03-04T13:47:13.022Z,73.90
2018-03-04T13:49:40.563Z,74.00
2018-03-04T13:52:08.080Z,73.50
2018-03-04T13:54:35.606Z,73.70
2018-03-04T13:57:03.530Z,73.70
2018-03-04T13:59:31.041Z,73.50
2018-03-04T14:01:58.587Z,73.90
2018-03-04T14:04:26.487Z,74.40
2018-03-04T14:06:54.092Z,74.60
2018-03-04T14:09:22.008Z,73.80
2018-03-04T14:11:49.565Z,74.10
2018-03-04T14:14:17.079Z,73.90
2018-03-04T14:16:44.991Z,74.40
2018-03-04T14:19:12.528Z,74.40
2018-03-04T14:21:40.052Z,74.40
2018-03-04T14:24:07.582Z,74.60
2018-03-04T14:26:35.206Z,74.30
2018-03-04T14:29:02.735Z,73.80
2018-03-04T14:31:30.254Z,73.90
2018-03-04T14:33:57.787Z,74.20
2018-03-04T14:36:25.304Z,74.70
2018-03-04T14:38:52.839Z,74.40
2018-03-04T14:41:20.347Z,74.40
2018-03-04T14:43:48.333Z,75.30
2018-03-04T14:46:15.895Z,74.70
2018-03-04T14:48:43.421Z,74.90
2018-03-04T14:51:11.356Z,74.50
2018-03-04T14:53:38.881Z,74.30
2018-03-04T14:56:06.403Z,74.20
2018-03-04T14:58:34.308Z,74.10
2018-03-04T15:01:01.842Z,74.10
2018-03-04T15:03:29.358Z,74.20
2018-03-04T15:05:56.983Z,74.10
2018-03-04T15:08:24.499Z,74.50
2018-03-04T15:10:52.424Z,74.70
2018-03-04T15:13:19.934Z,74.30
2018-03-04T15:15:47.936Z,74.40
2018-03-04T15:18:16.211Z,74.40
2018-03-04T15:20:43.742Z,74.50
2018-03-04T15:23:11.646Z,74.80
2018-03-04T15:25:39.174Z,74.80
2018-03-04T15:28:06.790Z,74.80
2018-03-04T15:30:34.430Z,75.60
2018-03-04T15:33:01.992Z,75.60
2018-03-04T15:35:29.506Z,75.60
2018-03-04T15:37:57.439Z,75.90
2018-03-04T15:40:24.968Z,76.30
2018-03-04T15:42:52.509Z,76.30
2018-03-04T15:45:20.016Z,76.20
2018-03-04T15:47:47.555Z,76.50
2018-03-04T15:50:15.188Z,76.60
2018-03-04T15:52:42.723Z,76.80
2018-03-04T15:55:10.268Z,76.80
2018-03-04T15:57:38.188Z,76.90
2018-03-04T16:00:05.718Z,77.10
2018-03-04T16:02:33.255Z,77.10
2018-03-04T16:05:01.252Z,77.30
2018-03-04T16:07:28.778Z,77.30
2018-03-04T16:09:56.787Z,77.70
2018-03-04T16:12:24.452Z,77.70
2018-03-04T16:14:51.971Z,77.80
2018-03-04T16:17:19.974Z,77.80
2018-03-04T16:19:47.592Z,78.00
2018-03-04T16:22:15.508Z,78.20
2018-03-04T16:24:43.051Z,78.20
2018-03-04T16:27:10.556Z,77.80
2018-03-04T16:29:38.080Z,77.80
2018-03-04T16:32:05.672Z,78.00
2018-03-04T16:34:33.241Z,78.00
2018-03-04T16:37:01.292Z,78.40
2018-03-04T16:39:28.891Z,78.40
2018-03-04T16:41:56.798Z,78.40
2018-03-04T16:44:24.323Z,78.50
2018-03-04T16:46:52.228Z,78.50
2018-03-04T16:49:19.887Z,78.70
2018-03-04T16:51:47.407Z,78.90
2018-03-04T16:54:15.353Z,79.10
2018-03-04T16:56:42.863Z,79.40
2018-03-04T16:59:10.384Z,79.60
2018-03-04T17:01:38.330Z,80.00
2018-03-04T17:04:05.850Z,80.00
2018-03-04T17:06:33.425Z,80.00
2018-03-04T17:09:00.950Z,80.00
2018-03-04T17:11:28.499Z,80.30
2018-03-04T17:13:56.004Z,80.50
2018-03-04T17:16:23.703Z,80.60
2018-03-04T17:18:51.229Z,80.90
2018-03-04T17:21:18.782Z,81.00
2018-03-04T17:23:46.305Z,81.00
2018-03-04T17:26:13.839Z,81.00
2018-03-04T17:28:42.096Z,81.10
2018-03-04T17:31:10.033Z,81.20
2018-03-04T17:33:37.555Z,81.40
2018-03-04T17:36:05.098Z,81.40
2018-03-04T17:38:33.029Z,81.50
2018-03-04T17:41:00.536Z,81.60
2018-03-04T17:43:28.066Z,81.60
2018-03-04T17:45:56.084Z,81.60
2018-03-04T17:48:23.657Z,81.70
2018-03-04T17:50:51.178Z,81.60
2018-03-04T17:53:19.090Z,81.70
2018-03-04T17:55:46.631Z,81.70
2018-03-04T17:58:14.278Z,81.70
2018-03-04T18:00:41.839Z,81.70
2018-03-04T18:03:09.372Z,81.80
2018-03-04T18:05:37.271Z,81.90
2018-03-04T18:08:04.807Z,82.10
2018-03-04T18:10:32.320Z,82.40
2018-03-04T18:12:59.850Z,82.50
2018-03-04T18:15:27.374Z,82.50
2018-03-04T18:17:54.915Z,82.50
2018-03-04T18:20:22.916Z,82.60
2018-03-04T18:22:50.447Z,82.70
2018-03-04T18:25:18.444Z,82.80
2018-03-04T18:27:46.005Z,82.80
2018-03-04T18:30:13.515Z,82.80
2018-03-04T18:32:41.123Z,82.80
2018-03-04T18:35:08.635Z,82.80
2018-03-04T18:37:36.154Z,82.80
2018-03-04T18:40:03.696Z,82.70
2018-03-04T18:42:31.376Z,82.80
2018-03-04T18:44:59.023Z,82.70
2018-03-04T18:47:26.541Z,82.70
2018-03-04T18:49:54.485Z,82.50
2018-03-04T18:52:22.657Z,82.40
2018-03-04T18:58:22.228Z,82.30
2018-03-04T19:00:49.770Z,82.00
2018-03-04T19:03:17.682Z,82.00
2018-03-04T19:05:45.207Z,81.90
2018-03-04T19:08:12.723Z,81.70
2018-03-04T19:10:40.261Z,81.70
2018-03-04T19:13:07.776Z,81.70
2018-03-04T19:15:35.715Z,81.40
2018-03-04T19:18:03.226Z,81.20
2018-03-04T19:20:30.882Z,81.20
2018-03-04T19:22:58.492Z,81.20
2018-03-04T19:25:26.028Z,81.00
2018-03-04T19:27:53.553Z,81.00
2018-03-04T19:30:21.083Z,81.00
2018-03-04T19:32:49.016Z,81.20
2018-03-04T19:35:16.552Z,81.20
2018-03-04T19:37:44.064Z,81.00
2018-03-04T19:40:12.490Z,80.90
2018-03-04T19:42:40.010Z,80.90
2018-03-04T19:45:07.935Z,80.80
2018-03-04T19:47:35.464Z,80.80
2018-03-04T19:50:02.991Z,80.90
2018-03-04T19:52:30.894Z,81.50
2018-03-04T19:54:58.491Z,81.50
2018-03-04T19:57:26.003Z,81.70
2018-03-04T19:59:53.511Z,81.60
2018-03-04T20:02:21.039Z,81.60
2018-03-04T20:04:48.551Z,81.50
2018-03-04T20:07:16.496Z,81.40
2018-03-04T20:09:44.490Z,81.40
2018-03-04T20:12:12.426Z,81.20
2018-03-04T20:14:39.949Z,81.20
2018-03-04T20:17:07.485Z,81.50
2018-03-04T20:19:35.391Z,81.50
2018-03-04T20:22:03.051Z,81.30
2018-03-04T20:24:30.596Z,81.30
2018-03-04T20:26:58.179Z,81.40
2018-03-04T20:29:25.729Z,81.50
2018-03-04T20:31:53.291Z,81.30
2018-03-04T20:34:20.801Z,81.30
2018-03-04T20:36:48.724Z,81.00
2018-03-04T20:39:16.264Z,81.00
2018-03-04T20:41:43.793Z,81.10
2018-03-04T20:44:11.295Z,80.90
2018-03-04T20:46:38.818Z,80.80
2018-03-04T20:49:06.447Z,80.90
2018-03-04T20:51:34.415Z,80.60
2018-03-04T20:54:02.335Z,80.80
2018-03-04T20:56:29.895Z,80.40
2018-03-04T20:58:57.428Z,80.40
2018-03-04T21:01:24.935Z,80.50
2018-03-04T21:03:52.511Z,81.20
2018-03-04T21:06:20.428Z,81.40
2018-03-04T21:08:47.982Z,81.50
2018-03-04T21:11:15.503Z,81.50
2018-03-04T21:13:43.428Z,82.50
2018-03-04T21:16:10.946Z,82.80
2018-03-04T21:18:38.495Z,82.90
2018-03-04T21:21:06.418Z,83.20
2018-03-04T21:23:34.363Z,83.00
2018-03-04T21:26:01.889Z,83.30
2018-03-04T21:28:29.419Z,83.30
2018-03-04T21:30:57.344Z,83.20
2018-03-04T21:33:24.875Z,83.10
2018-03-04T21:35:52.403Z,83.00
2018-03-04T21:38:19.964Z,83.00
2018-03-04T21:40:47.872Z,83.30
2018-03-04T21:43:15.407Z,83.40
2018-03-04T21:45:43.313Z,83.50
2018-03-04T21:48:11.069Z,83.50
2018-03-04T21:50:38.580Z,83.20
2018-03-04T21:53:06.511Z,83.10
2018-03-04T21:55:34.051Z,82.80
2018-03-04T21:58:01.725Z,82.70
2018-03-04T22:00:29.315Z,82.50
2018-03-04T22:02:57.256Z,82.40
2018-03-04T22:05:24.758Z,82.40
2018-03-04T22:07:52.765Z,82.00
2018-03-04T22:10:20.278Z,81.90
2018-03-04T22:12:48.221Z,82.00
2018-03-04T22:15:15.725Z,82.00
2018-03-04T22:17:43.272Z,81.80
2018-03-04T22:20:11.172Z,82.40
2018-03-04T22:22:38.708Z,82.30
2018-03-04T22:25:06.219Z,82.60
2018-03-04T22:27:33.730Z,82.40
2018-03-04T22:30:01.260Z,82.30
2018-03-04T22:32:29.269Z,82.10
2018-03-04T22:34:56.836Z,82.30
2018-03-04T22:37:24.356Z,82.10
2018-03-04T22:39:52.298Z,82.10
2018-03-04T22:42:19.902Z,82.30
2018-03-04T22:44:47.454Z,82.10
2018-03-04T22:47:15.354Z,82.00
2018-03-04T22:49:42.895Z,82.00
2018-03-04T22:52:10.425Z,82.00
2018-03-04T22:54:38.351Z,81.90
2018-03-04T22:57:05.874Z,81.90
2018-03-04T22:59:33.415Z,81.90
2018-03-04T23:02:01.331Z,81.80
2018-03-04T23:04:29.279Z,81.70
2018-03-04T23:06:56.791Z,81.80
2018-03-04T23:09:24.695Z,81.60
2018-03-04T23:11:52.238Z,81.60
2018-03-04T23:14:19.758Z,81.70
2018-03-04T23:16:47.307Z,81.70
2018-03-04T23:19:14.815Z,82.10
2018-03-04T23:21:42.361Z,82.60
2018-03-04T23:24:10.648Z,82.80
2018-03-04T23:26:38.224Z,82.90
2018-03-04T23:29:05.768Z,82.90
2018-03-04T23:31:33.308Z,83.00
2018-03-04T23:34:01.211Z,82.80
2018-03-04T23:36:28.733Z,82.70
2018-03-04T23:38:56.644Z,82.60
2018-03-04T23:41:24.188Z,82.50
2018-03-04T23:43:51.693Z,82.30
2018-03-04T23:46:19.251Z,82.30
2018-03-04T23:48:46.766Z,82.30
2018-03-04T23:51:14.291Z,82.30
2018-03-04T23:53:42.231Z,82.30
2018-03-04T23:56:09.766Z,82.00
2018-03-04T23:58:37.413Z,82.00
